sensor_id;sensor_type;location;lat;lon;timestamp;pressure;altitude;pressure_sealevel;temperature;humidity
30873;BME280;17579;42.690;2.586;2023-09-18T00:01:57;96710.56;;;23.81;80.58
30873;BME280;17579;42.690;2.586;2023-09-18T00:04:23;96714.78;;;23.77;81.03
30873;BME280;17579;42.690;2.586;2023-09-18T00:06:52;96726.91;;;23.75;80.73
30873;BME280;17579;42.690;2.586;2023-09-18T00:09:20;96725.84;;;23.76;81.37
30873;BME280;17579;42.690;2.586;2023-09-18T00:12:54;96724.78;;;23.77;81.36
30873;BME280;17579;42.690;2.586;2023-09-18T00:14:37;96723.00;;;23.82;80.78
30873;BME280;17579;42.690;2.586;2023-09-18T00:17:13;96711.28;;;23.77;81.11
30873;BME280;17579;42.690;2.586;2023-09-18T00:20:06;96687.78;;;23.77;80.97
30873;BME280;17579;42.690;2.586;2023-09-18T00:22:32;96705.66;;;23.78;81.16
30873;BME280;17579;42.690;2.586;2023-09-18T00:25:07;96730.09;;;23.72;81.10
30873;BME280;17579;42.690;2.586;2023-09-18T00:27:40;96728.78;;;23.74;81.70
30873;BME280;17579;42.690;2.586;2023-09-18T00:30:09;96741.81;;;23.77;81.63
30873;BME280;17579;42.690;2.586;2023-09-18T00:32:43;96756.59;;;23.75;80.98
30873;BME280;17579;42.690;2.586;2023-09-18T00:35:09;96765.44;;;23.70;81.33
30873;BME280;17579;42.690;2.586;2023-09-18T00:37:34;96786.94;;;23.65;81.98
30873;BME280;17579;42.690;2.586;2023-09-18T00:40:08;96811.38;;;23.58;82.16
30873;BME280;17579;42.690;2.586;2023-09-18T00:42:36;96813.16;;;23.52;81.92
30873;BME280;17579;42.690;2.586;2023-09-18T00:45:11;96832.66;;;23.43;82.49
30873;BME280;17579;42.690;2.586;2023-09-18T00:47:39;96875.84;;;23.31;83.05
30873;BME280;17579;42.690;2.586;2023-09-18T00:50:13;96889.22;;;23.14;83.25
30873;BME280;17579;42.690;2.586;2023-09-18T00:52:58;96903.19;;;23.11;83.43
30873;BME280;17579;42.690;2.586;2023-09-18T00:55:24;96899.75;;;23.04;82.97
30873;BME280;17579;42.690;2.586;2023-09-18T00:58:03;96842.44;;;22.42;78.84
30873;BME280;17579;42.690;2.586;2023-09-18T01:00:29;96800.53;;;21.74;77.90
30873;BME280;17579;42.690;2.586;2023-09-18T01:02:55;96769.75;;;21.33;78.39
30873;BME280;17579;42.690;2.586;2023-09-18T01:05:26;96748.91;;;21.09;80.30
30873;BME280;17579;42.690;2.586;2023-09-18T01:07:54;96743.38;;;20.86;80.34
30873;BME280;17579;42.690;2.586;2023-09-18T01:10:33;96721.53;;;20.57;80.58
30873;BME280;17579;42.690;2.586;2023-09-18T01:13:10;96705.59;;;20.37;79.98
30873;BME280;17579;42.690;2.586;2023-09-18T01:15:44;96694.22;;;20.16;78.61
30873;BME280;17579;42.690;2.586;2023-09-18T01:18:14;96688.00;;;19.97;76.94
30873;BME280;17579;42.690;2.586;2023-09-18T01:20:46;96675.31;;;19.79;74.03
30873;BME280;17579;42.690;2.586;2023-09-18T01:23:17;96674.34;;;19.67;76.00
30873;BME280;17579;42.690;2.586;2023-09-18T01:25:45;96678.09;;;19.59;73.37
30873;BME280;17579;42.690;2.586;2023-09-18T01:28:34;96652.16;;;19.53;70.20
30873;BME280;17579;42.690;2.586;2023-09-18T01:31:07;96654.47;;;19.74;71.63
30873;BME280;17579;42.690;2.586;2023-09-18T01:33:37;96666.97;;;19.94;72.39
30873;BME280;17579;42.690;2.586;2023-09-18T01:36:05;96668.84;;;20.12;72.58
30873;BME280;17579;42.690;2.586;2023-09-18T01:38:35;96659.13;;;20.36;73.72
30873;BME280;17579;42.690;2.586;2023-09-18T01:41:07;96660.34;;;20.59;74.16
30873;BME280;17579;42.690;2.586;2023-09-18T01:43:37;96660.59;;;20.76;73.68
30873;BME280;17579;42.690;2.586;2023-09-18T01:46:07;96656.72;;;20.90;73.22
30873;BME280;17579;42.690;2.586;2023-09-18T01:48:45;96653.25;;;21.02;74.09
30873;BME280;17579;42.690;2.586;2023-09-18T01:54:29;96659.16;;;21.41;72.08
30873;BME280;17579;42.690;2.586;2023-09-18T01:57:26;96654.25;;;21.50;72.57
30873;BME280;17579;42.690;2.586;2023-09-18T01:59:59;96656.78;;;21.63;71.75
30873;BME280;17579;42.690;2.586;2023-09-18T02:02:24;96655.84;;;21.69;71.30
30873;BME280;17579;42.690;2.586;2023-09-18T02:04:50;96645.59;;;21.78;71.78
30873;BME280;17579;42.690;2.586;2023-09-18T02:07:16;96644.41;;;21.86;71.52
30873;BME280;17579;42.690;2.586;2023-09-18T02:09:42;96630.50;;;21.89;70.49
30873;BME280;17579;42.690;2.586;2023-09-18T02:12:33;96646.06;;;21.87;71.76
30873;BME280;17579;42.690;2.586;2023-09-18T02:14:59;96641.97;;;21.96;69.74
30873;BME280;17579;42.690;2.586;2023-09-18T02:20:30;96639.03;;;21.97;69.70
30873;BME280;17579;42.690;2.586;2023-09-18T02:23:01;96638.94;;;21.92;68.52
30873;BME280;17579;42.690;2.586;2023-09-18T02:25:29;96640.44;;;21.88;67.89
30873;BME280;17579;42.690;2.586;2023-09-18T02:28:06;96640.09;;;21.85;67.87
30873;BME280;17579;42.690;2.586;2023-09-18T02:30:35;96644.66;;;21.84;68.42
30873;BME280;17579;42.690;2.586;2023-09-18T02:33:00;96630.25;;;21.90;68.20
30873;BME280;17579;42.690;2.586;2023-09-18T02:35:29;96632.63;;;21.98;67.65
30873;BME280;17579;42.690;2.586;2023-09-18T02:38:28;96627.56;;;22.02;68.09
30873;BME280;17579;42.690;2.586;2023-09-18T02:40:55;96615.03;;;22.08;66.64
30873;BME280;17579;42.690;2.586;2023-09-18T02:46:17;96621.97;;;22.15;66.26
30873;BME280;17579;42.690;2.586;2023-09-18T02:49:06;96609.06;;;22.18;64.46
30873;BME280;17579;42.690;2.586;2023-09-18T02:51:32;96620.66;;;22.18;62.46
30873;BME280;17579;42.690;2.586;2023-09-18T02:53:59;96613.06;;;22.27;61.94
30873;BME280;17579;42.690;2.586;2023-09-18T02:56:27;96619.19;;;22.34;62.41
30873;BME280;17579;42.690;2.586;2023-09-18T02:59:01;96610.63;;;22.37;61.81
30873;BME280;17579;42.690;2.586;2023-09-18T03:01:26;96607.78;;;22.44;60.88
30873;BME280;17579;42.690;2.586;2023-09-18T03:03:52;96601.94;;;22.47;60.14
30873;BME280;17579;42.690;2.586;2023-09-18T03:06:29;96604.72;;;22.52;60.65
30873;BME280;17579;42.690;2.586;2023-09-18T03:08:55;96588.31;;;22.54;59.52
30873;BME280;17579;42.690;2.586;2023-09-18T03:11:51;96587.41;;;22.48;60.84
30873;BME280;17579;42.690;2.586;2023-09-18T03:14:19;96591.63;;;22.56;59.36
30873;BME280;17579;42.690;2.586;2023-09-18T03:16:45;96592.91;;;22.53;58.75
30873;BME280;17579;42.690;2.586;2023-09-18T03:19:16;96587.84;;;22.57;58.96
30873;BME280;17579;42.690;2.586;2023-09-18T03:21:42;96579.19;;;22.55;57.40
30873;BME280;17579;42.690;2.586;2023-09-18T03:24:10;96577.31;;;22.55;56.44
30873;BME280;17579;42.690;2.586;2023-09-18T03:26:56;96570.13;;;22.61;56.07
30873;BME280;17579;42.690;2.586;2023-09-18T03:29:24;96567.56;;;22.66;55.37
30873;BME280;17579;42.690;2.586;2023-09-18T03:31:50;96569.53;;;22.71;54.39
30873;BME280;17579;42.690;2.586;2023-09-18T03:34:25;96566.78;;;22.82;53.75
30873;BME280;17579;42.690;2.586;2023-09-18T03:37:04;96575.06;;;22.93;52.65
30873;BME280;17579;42.690;2.586;2023-09-18T03:39:32;96576.56;;;23.00;52.05
30873;BME280;17579;42.690;2.586;2023-09-18T03:41:58;96575.13;;;23.10;51.36
30873;BME280;17579;42.690;2.586;2023-09-18T03:44:26;96577.94;;;23.15;50.91
30873;BME280;17579;42.690;2.586;2023-09-18T03:46:55;96583.84;;;23.12;50.03
30873;BME280;17579;42.690;2.586;2023-09-18T03:49:27;96599.53;;;23.15;50.68
30873;BME280;17579;42.690;2.586;2023-09-18T03:51:56;96599.53;;;23.15;50.73
30873;BME280;17579;42.690;2.586;2023-09-18T03:54:33;96593.53;;;23.13;51.05
30873;BME280;17579;42.690;2.586;2023-09-18T03:57:00;96592.13;;;23.10;50.72
30873;BME280;17579;42.690;2.586;2023-09-18T03:59:25;96589.44;;;23.10;50.40
30873;BME280;17579;42.690;2.586;2023-09-18T04:01:51;96601.88;;;23.11;50.20
30873;BME280;17579;42.690;2.586;2023-09-18T04:04:17;96607.03;;;23.13;50.86
30873;BME280;17579;42.690;2.586;2023-09-18T04:06:53;96600.69;;;23.07;52.24
30873;BME280;17579;42.690;2.586;2023-09-18T04:09:37;96609.75;;;23.01;52.41
30873;BME280;17579;42.690;2.586;2023-09-18T04:12:05;96602.25;;;23.03;51.25
30873;BME280;17579;42.690;2.586;2023-09-18T04:14:34;96592.16;;;22.98;51.03
30873;BME280;17579;42.690;2.586;2023-09-18T04:17:00;96605.41;;;23.00;50.81
30873;BME280;17579;42.690;2.586;2023-09-18T04:19:30;96597.31;;;23.00;50.79
30873;BME280;17579;42.690;2.586;2023-09-18T04:21:57;96589.56;;;23.04;50.76
30873;BME280;17579;42.690;2.586;2023-09-18T04:24:25;96600.59;;;23.02;49.92
30873;BME280;17579;42.690;2.586;2023-09-18T04:27:13;96604.34;;;23.01;51.43
30873;BME280;17579;42.690;2.586;2023-09-18T04:29:39;96602.09;;;23.10;49.67
30873;BME280;17579;42.690;2.586;2023-09-18T04:32:13;96600.69;;;23.07;51.04
30873;BME280;17579;42.690;2.586;2023-09-18T04:34:42;96603.88;;;23.16;49.88
30873;BME280;17579;42.690;2.586;2023-09-18T04:39:59;96610.63;;;23.18;49.61
30873;BME280;17579;42.690;2.586;2023-09-18T04:42:32;96614.41;;;23.17;49.83
30873;BME280;17579;42.690;2.586;2023-09-18T04:44:58;96622.75;;;23.16;50.31
30873;BME280;17579;42.690;2.586;2023-09-18T04:47:29;96625.44;;;23.16;49.65
30873;BME280;17579;42.690;2.586;2023-09-18T04:50:05;96609.97;;;23.11;52.30
30873;BME280;17579;42.690;2.586;2023-09-18T04:52:34;96608.94;;;23.00;53.82
30873;BME280;17579;42.690;2.586;2023-09-18T04:55:41;96604.69;;;22.76;55.23
30873;BME280;17579;42.690;2.586;2023-09-18T04:58:45;96613.63;;;22.64;56.00
30873;BME280;17579;42.690;2.586;2023-09-18T05:01:11;96625.94;;;22.60;54.02
30873;BME280;17579;42.690;2.586;2023-09-18T05:03:49;96623.69;;;22.69;54.14
30873;BME280;17579;42.690;2.586;2023-09-18T05:06:17;96638.31;;;22.73;55.28
30873;BME280;17579;42.690;2.586;2023-09-18T05:08:44;96635.38;;;22.75;56.18
30873;BME280;17579;42.690;2.586;2023-09-18T05:11:19;96648.63;;;22.76;55.42
30873;BME280;17579;42.690;2.586;2023-09-18T05:14:16;96644.97;;;22.82;54.23
30873;BME280;17579;42.690;2.586;2023-09-18T05:16:44;96632.41;;;22.88;53.65
30873;BME280;17579;42.690;2.586;2023-09-18T05:19:10;96622.78;;;22.92;53.12
30873;BME280;17579;42.690;2.586;2023-09-18T05:21:48;96626.53;;;22.91;54.47
30873;BME280;17579;42.690;2.586;2023-09-18T05:24:23;96636.63;;;22.96;54.76
30873;BME280;17579;42.690;2.586;2023-09-18T05:26:58;96630.81;;;22.87;55.39
30873;BME280;17579;42.690;2.586;2023-09-18T05:29:33;96629.88;;;22.81;55.43
30873;BME280;17579;42.690;2.586;2023-09-18T05:32:26;96626.34;;;22.81;55.92
30873;BME280;17579;42.690;2.586;2023-09-18T05:35:20;96622.25;;;22.78;55.81
30873;BME280;17579;42.690;2.586;2023-09-18T05:37:50;96629.75;;;22.76;55.72
30873;BME280;17579;42.690;2.586;2023-09-18T05:40:19;96635.38;;;22.75;56.33
30873;BME280;17579;42.690;2.586;2023-09-18T05:42:44;96633.41;;;22.70;57.03
30873;BME280;17579;42.690;2.586;2023-09-18T05:45:31;96615.47;;;22.64;56.80
30873;BME280;17579;42.690;2.586;2023-09-18T05:48:17;96593.34;;;22.62;57.10
30873;BME280;17579;42.690;2.586;2023-09-18T05:51:03;96590.22;;;22.53;57.28
30873;BME280;17579;42.690;2.586;2023-09-18T05:53:37;96619.84;;;22.53;56.77
30873;BME280;17579;42.690;2.586;2023-09-18T05:56:13;96619.25;;;22.51;56.66
30873;BME280;17579;42.690;2.586;2023-09-18T05:59:08;96626.19;;;22.47;56.83
30873;BME280;17579;42.690;2.586;2023-09-18T06:08:45;96628.03;;;22.58;56.92
30873;BME280;17579;42.690;2.586;2023-09-18T06:11:33;96649.97;;;22.50;57.03
30873;BME280;17579;42.690;2.586;2023-09-18T06:20:54;96680.78;;;22.42;55.10
30873;BME280;17579;42.690;2.586;2023-09-18T06:26:33;96686.84;;;22.26;56.02
30873;BME280;17579;42.690;2.586;2023-09-18T06:29:04;96695.50;;;22.28;54.80
30873;BME280;17579;42.690;2.586;2023-09-18T06:31:30;96694.09;;;22.25;55.15
30873;BME280;17579;42.690;2.586;2023-09-18T06:34:15;96700.66;;;22.29;55.18
30873;BME280;17579;42.690;2.586;2023-09-18T06:36:43;96700.06;;;22.27;55.02
30873;BME280;17579;42.690;2.586;2023-09-18T06:39:18;96697.38;;;22.27;54.82
30873;BME280;17579;42.690;2.586;2023-09-18T06:42:00;96695.97;;;22.25;55.48
30873;BME280;17579;42.690;2.586;2023-09-18T06:44:28;96696.56;;;22.27;54.42
30873;BME280;17579;42.690;2.586;2023-09-18T06:46:59;96703.34;;;22.29;54.54
30873;BME280;17579;42.690;2.586;2023-09-18T06:49:32;96725.50;;;22.31;54.63
30873;BME280;17579;42.690;2.586;2023-09-18T06:51:59;96725.50;;;22.31;54.22
30873;BME280;17579;42.690;2.586;2023-09-18T06:57:33;96729.75;;;22.39;54.96
30873;BME280;17579;42.690;2.586;2023-09-18T07:00:10;96736.22;;;22.50;54.47
30873;BME280;17579;42.690;2.586;2023-09-18T07:02:39;96735.25;;;22.56;54.82
30873;BME280;17579;42.690;2.586;2023-09-18T07:05:11;96736.19;;;22.62;55.76
30873;BME280;17579;42.690;2.586;2023-09-18T07:07:49;96741.00;;;22.60;55.06
30873;BME280;17579;42.690;2.586;2023-09-18T07:10:16;96720.03;;;22.62;54.26
30873;BME280;17579;42.690;2.586;2023-09-18T07:12:52;96721.69;;;22.63;55.07
30873;BME280;17579;42.690;2.586;2023-09-18T07:15:57;96732.91;;;22.72;55.37
30873;BME280;17579;42.690;2.586;2023-09-18T07:18:23;96723.97;;;22.95;55.42
30873;BME280;17579;42.690;2.586;2023-09-18T07:20:54;96723.00;;;23.13;55.54
30873;BME280;17579;42.690;2.586;2023-09-18T07:23:20;96727.31;;;23.26;56.44
30873;BME280;17579;42.690;2.586;2023-09-18T07:25:49;96741.75;;;23.31;56.48
30873;BME280;17579;42.690;2.586;2023-09-18T07:28:17;96743.75;;;23.36;56.89
30873;BME280;17579;42.690;2.586;2023-09-18T07:31:04;96736.78;;;23.40;57.22
30873;BME280;17579;42.690;2.586;2023-09-18T07:34:09;96743.94;;;23.46;57.20
30873;BME280;17579;42.690;2.586;2023-09-18T07:36:55;96730.03;;;23.55;57.50
30873;BME280;17579;42.690;2.586;2023-09-18T07:39:33;96728.50;;;23.59;56.85
30873;BME280;17579;42.690;2.586;2023-09-18T07:42:09;96724.50;;;23.61;56.85
30873;BME280;17579;42.690;2.586;2023-09-18T07:44:39;96726.16;;;23.62;56.87
30873;BME280;17579;42.690;2.586;2023-09-18T07:47:08;96735.66;;;23.65;57.48
30873;BME280;17579;42.690;2.586;2023-09-18T07:49:33;96735.16;;;23.68;58.70
30873;BME280;17579;42.690;2.586;2023-09-18T07:52:09;96738.78;;;23.74;59.39
30873;BME280;17579;42.690;2.586;2023-09-18T07:54:38;96743.56;;;23.83;59.22
30873;BME280;17579;42.690;2.586;2023-09-18T07:57:08;96742.34;;;23.91;60.14
30873;BME280;17579;42.690;2.586;2023-09-18T07:59:37;96736.22;;;23.96;60.59
30873;BME280;17579;42.690;2.586;2023-09-18T08:02:04;96731.97;;;24.00;60.77
30873;BME280;17579;42.690;2.586;2023-09-18T08:04:31;96748.44;;;23.98;60.02
30873;BME280;17579;42.690;2.586;2023-09-18T08:07:08;96750.53;;;23.96;60.48
30873;BME280;17579;42.690;2.586;2023-09-18T08:09:37;96757.09;;;24.00;60.29
30873;BME280;17579;42.690;2.586;2023-09-18T08:12:12;96748.53;;;24.03;60.28
30873;BME280;17579;42.690;2.586;2023-09-18T08:14:37;96756.56;;;24.15;60.61
30873;BME280;17579;42.690;2.586;2023-09-18T08:17:03;96742.06;;;24.21;59.57
30873;BME280;17579;42.690;2.586;2023-09-18T08:19:45;96743.94;;;24.21;57.87
30873;BME280;17579;42.690;2.586;2023-09-18T08:22:11;96741.47;;;24.36;58.23
30873;BME280;17579;42.690;2.586;2023-09-18T08:24:43;96741.72;;;24.52;58.71
30873;BME280;17579;42.690;2.586;2023-09-18T08:27:29;96752.88;;;24.72;58.15
30873;BME280;17579;42.690;2.586;2023-09-18T08:29:55;96744.72;;;24.89;58.31
30873;BME280;17579;42.690;2.586;2023-09-18T08:32:21;96741.97;;;25.06;57.75
30873;BME280;17579;42.690;2.586;2023-09-18T08:34:46;96741.38;;;25.21;57.70
30873;BME280;17579;42.690;2.586;2023-09-18T08:37:23;96751.25;;;25.33;57.57
30873;BME280;17579;42.690;2.586;2023-09-18T08:39:49;96749.06;;;25.52;57.23
30873;BME280;17579;42.690;2.586;2023-09-18T08:45:22;96746.97;;;25.59;56.71
30873;BME280;17579;42.690;2.586;2023-09-18T08:47:54;96748.09;;;25.63;56.34
30873;BME280;17579;42.690;2.586;2023-09-18T10:00:31;96760.56;;;27.31;52.57
30873;BME280;17579;42.690;2.586;2023-09-18T10:03:03;96754.00;;;27.27;51.95
30873;BME280;17579;42.690;2.586;2023-09-18T10:05:56;96754.56;;;27.24;53.48
30873;BME280;17579;42.690;2.586;2023-09-18T10:09:05;96753.81;;;27.39;53.07
30873;BME280;17579;42.690;2.586;2023-09-18T10:11:45;96748.44;;;27.55;51.97
30873;BME280;17579;42.690;2.586;2023-09-18T10:17:11;96741.16;;;27.71;51.48
30873;BME280;17579;42.690;2.586;2023-09-18T10:19:52;96738.19;;;27.82;51.34
30873;BME280;17579;42.690;2.586;2023-09-18T10:25:14;96720.59;;;28.16;51.25
30873;BME280;17579;42.690;2.586;2023-09-18T10:27:55;96731.72;;;28.40;48.01
30873;BME280;17579;42.690;2.586;2023-09-18T10:33:21;96738.53;;;28.48;49.42
30873;BME280;17579;42.690;2.586;2023-09-18T10:35:58;96734.44;;;28.56;49.75
30873;BME280;17579;42.690;2.586;2023-09-18T10:38:38;96739.63;;;28.62;49.58
30873;BME280;17579;42.690;2.586;2023-09-18T10:41:20;96737.16;;;28.56;49.62
30873;BME280;17579;42.690;2.586;2023-09-18T10:47:39;96757.88;;;28.72;50.43
30873;BME280;17579;42.690;2.586;2023-09-18T10:50:23;96758.06;;;28.96;47.75
30873;BME280;17579;42.690;2.586;2023-09-18T10:56:16;96755.88;;;29.14;47.97
30873;BME280;17579;42.690;2.586;2023-09-18T10:58:45;96753.09;;;29.19;46.85
30873;BME280;17579;42.690;2.586;2023-09-18T11:01:17;96761.56;;;29.17;47.94
30873;BME280;17579;42.690;2.586;2023-09-18T11:03:54;96770.28;;;29.25;46.44
30873;BME280;17579;42.690;2.586;2023-09-18T11:06:25;96770.56;;;29.28;46.00
30873;BME280;17579;42.690;2.586;2023-09-18T11:18:23;96764.59;;;29.00;46.01
30873;BME280;17579;42.690;2.586;2023-09-18T11:29:09;96777.88;;;29.33;46.52
30873;BME280;17579;42.690;2.586;2023-09-18T11:29:41;96774.56;;;29.46;46.01
30873;BME280;17579;42.690;2.586;2023-09-18T11:35:10;96765.53;;;29.51;45.80
30873;BME280;17579;42.690;2.586;2023-09-18T11:37:46;96768.75;;;29.63;45.49
30873;BME280;17579;42.690;2.586;2023-09-18T11:43:28;96765.84;;;29.99;45.83
30873;BME280;17579;42.690;2.586;2023-09-18T11:46:06;96769.16;;;29.96;45.51
30873;BME280;17579;42.690;2.586;2023-09-18T11:49:16;96771.13;;;29.85;45.68
30873;BME280;17579;42.690;2.586;2023-09-18T11:55:04;96774.75;;;29.65;44.71
30873;BME280;17579;42.690;2.586;2023-09-18T11:57:45;96765.47;;;29.66;43.87
30873;BME280;17579;42.690;2.586;2023-09-18T12:06:01;96771.16;;;29.75;43.55
30873;BME280;17579;42.690;2.586;2023-09-18T12:11:53;96750.91;;;30.31;42.61
30873;BME280;17579;42.690;2.586;2023-09-18T12:14:23;96756.75;;;30.54;41.06
30873;BME280;17579;42.690;2.586;2023-09-18T12:16:56;96758.56;;;30.64;41.99
30873;BME280;17579;42.690;2.586;2023-09-18T12:19:33;96764.66;;;30.85;41.39
30873;BME280;17579;42.690;2.586;2023-09-18T12:24:50;96769.44;;;30.98;40.75
30873;BME280;17579;42.690;2.586;2023-09-18T12:33:43;96760.06;;;31.09;39.03
30873;BME280;17579;42.690;2.586;2023-09-18T12:36:47;96769.28;;;30.84;39.64
30873;BME280;17579;42.690;2.586;2023-09-18T12:39:38;96764.31;;;30.62;39.47
30873;BME280;17579;42.690;2.586;2023-09-18T12:42:53;96774.84;;;30.74;40.06
30873;BME280;17579;42.690;2.586;2023-09-18T12:51:16;96771.00;;;31.09;38.23
30873;BME280;17579;42.690;2.586;2023-09-18T12:54:22;96774.31;;;31.06;38.63
30873;BME280;17579;42.690;2.586;2023-09-18T12:57:30;96781.16;;;30.99;37.97
30873;BME280;17579;42.690;2.586;2023-09-18T13:00:18;96791.59;;;30.91;38.30
30873;BME280;17579;42.690;2.586;2023-09-18T13:08:28;96760.97;;;30.70;36.86
30873;BME280;17579;42.690;2.586;2023-09-18T13:11:09;96755.81;;;30.69;36.90
30873;BME280;17579;42.690;2.586;2023-09-18T13:13:56;96757.31;;;30.80;37.19
30873;BME280;17579;42.690;2.586;2023-09-18T13:17:03;96756.94;;;30.92;37.12
30873;BME280;17579;42.690;2.586;2023-09-18T13:22:50;96750.34;;;31.47;35.84
30873;BME280;17579;42.690;2.586;2023-09-18T13:25:36;96748.41;;;31.71;34.52
30873;BME280;17579;42.690;2.586;2023-09-18T13:28:31;96747.66;;;32.04;35.53
30873;BME280;17579;42.690;2.586;2023-09-18T13:31:17;96740.78;;;32.58;33.84
30873;BME280;17579;42.690;2.586;2023-09-18T13:33:46;96741.50;;;32.83;32.60
30873;BME280;17579;42.690;2.586;2023-09-18T13:36:24;96751.53;;;33.15;32.91
30873;BME280;17579;42.690;2.586;2023-09-18T13:39:12;96755.94;;;33.44;33.28
30873;BME280;17579;42.690;2.586;2023-09-18T13:42:09;96754.06;;;33.67;32.36
30873;BME280;17579;42.690;2.586;2023-09-18T13:44:44;96755.00;;;33.63;30.75
30873;BME280;17579;42.690;2.586;2023-09-18T13:47:32;96753.81;;;33.41;31.54
30873;BME280;17579;42.690;2.586;2023-09-18T13:50:31;96746.69;;;33.12;31.99
30873;BME280;17579;42.690;2.586;2023-09-18T13:53:26;96752.25;;;33.63;32.22
30873;BME280;17579;42.690;2.586;2023-09-18T13:56:09;96742.53;;;34.07;31.20
30873;BME280;17579;42.690;2.586;2023-09-18T13:59:04;96754.47;;;34.25;30.61
30873;BME280;17579;42.690;2.586;2023-09-18T14:01:52;96757.91;;;34.53;30.72
30873;BME280;17579;42.690;2.586;2023-09-18T14:04:48;96760.75;;;34.71;29.67
30873;BME280;17579;42.690;2.586;2023-09-18T14:10:15;96777.50;;;34.61;29.37
30873;BME280;17579;42.690;2.586;2023-09-18T14:13:11;96776.00;;;34.55;29.95
30873;BME280;17579;42.690;2.586;2023-09-18T14:15:43;96775.16;;;33.95;28.62
30873;BME280;17579;42.690;2.586;2023-09-18T14:18:09;96775.19;;;33.11;29.29
30873;BME280;17579;42.690;2.586;2023-09-18T14:20:53;96769.47;;;32.47;30.28
30873;BME280;17579;42.690;2.586;2023-09-18T14:23:47;96778.88;;;32.22;30.87
30873;BME280;17579;42.690;2.586;2023-09-18T14:32:50;96789.44;;;33.41;31.34
30873;BME280;17579;42.690;2.586;2023-09-18T14:35:20;96795.84;;;32.76;36.85
30873;BME280;17579;42.690;2.586;2023-09-18T14:37:55;96793.38;;;32.41;37.63
30873;BME280;17579;42.690;2.586;2023-09-18T14:40:29;96790.19;;;32.15;38.34
30873;BME280;17579;42.690;2.586;2023-09-18T14:42:59;96782.41;;;32.03;39.30
30873;BME280;17579;42.690;2.586;2023-09-18T14:45:45;96784.63;;;32.01;39.53
30873;BME280;17579;42.690;2.586;2023-09-18T14:48:25;96784.84;;;32.05;39.45
30873;BME280;17579;42.690;2.586;2023-09-18T14:51:18;96788.53;;;31.95;39.20
30873;BME280;17579;42.690;2.586;2023-09-18T14:54:02;96789.84;;;31.59;39.31
30873;BME280;17579;42.690;2.586;2023-09-18T14:56:55;96779.53;;;31.27;39.30
30873;BME280;17579;42.690;2.586;2023-09-18T14:59:27;96780.09;;;31.48;39.94
30873;BME280;17579;42.690;2.586;2023-09-18T15:02:03;96782.59;;;31.69;39.49
30873;BME280;17579;42.690;2.586;2023-09-18T15:05:03;96774.34;;;31.74;38.41
30873;BME280;17579;42.690;2.586;2023-09-18T15:07:40;96775.66;;;31.76;37.30
30873;BME280;17579;42.690;2.586;2023-09-18T15:10:26;96781.94;;;31.58;37.74
30873;BME280;17579;42.690;2.586;2023-09-18T15:12:53;96791.09;;;31.67;38.03
30873;BME280;17579;42.690;2.586;2023-09-18T15:15:24;96790.88;;;31.64;37.93
30873;BME280;17579;42.690;2.586;2023-09-18T15:18:05;96802.97;;;31.57;38.39
30873;BME280;17579;42.690;2.586;2023-09-18T15:20:36;96799.16;;;31.53;35.11
30873;BME280;17579;42.690;2.586;2023-09-18T15:23:05;96794.13;;;31.41;32.47
30873;BME280;17579;42.690;2.586;2023-09-18T15:25:35;96801.69;;;31.25;33.43
30873;BME280;17579;42.690;2.586;2023-09-18T15:28:24;96800.69;;;31.16;32.73
30873;BME280;17579;42.690;2.586;2023-09-18T15:30:56;96805.69;;;31.09;31.61
30873;BME280;17579;42.690;2.586;2023-09-18T15:33:22;96807.69;;;30.93;32.22
30873;BME280;17579;42.690;2.586;2023-09-18T15:35:49;96809.53;;;30.73;31.41
30873;BME280;17579;42.690;2.586;2023-09-18T15:41:15;96824.00;;;30.34;31.88
30873;BME280;17579;42.690;2.586;2023-09-18T15:47:07;96823.69;;;29.96;33.12
30873;BME280;17579;42.690;2.586;2023-09-18T15:49:38;96829.72;;;29.88;32.99
30873;BME280;17579;42.690;2.586;2023-09-18T15:52:44;96834.09;;;29.79;33.31
30873;BME280;17579;42.690;2.586;2023-09-18T15:55:13;96837.34;;;29.81;32.60
30873;BME280;17579;42.690;2.586;2023-09-18T15:57:55;96835.75;;;29.69;32.40
30873;BME280;17579;42.690;2.586;2023-09-18T16:03:23;96841.53;;;29.63;33.28
30873;BME280;17579;42.690;2.586;2023-09-18T16:05:54;96834.16;;;29.58;33.12
30873;BME280;17579;42.690;2.586;2023-09-18T16:08:43;96851.63;;;29.57;32.86
30873;BME280;17579;42.690;2.586;2023-09-18T16:12:12;96860.44;;;29.28;33.81
30873;BME280;17579;42.690;2.586;2023-09-18T16:14:39;96856.34;;;29.00;33.97
30873;BME280;17579;42.690;2.586;2023-09-18T16:17:11;96872.97;;;28.73;34.29
30873;BME280;17579;42.690;2.586;2023-09-18T16:20:08;96875.09;;;28.50;34.51
30873;BME280;17579;42.690;2.586;2023-09-18T16:22:39;96882.69;;;28.38;34.99
30873;BME280;17579;42.690;2.586;2023-09-18T16:25:13;96871.72;;;28.07;35.75
30873;BME280;17579;42.690;2.586;2023-09-18T16:28:01;96890.91;;;27.79;35.97
30873;BME280;17579;42.690;2.586;2023-09-18T16:30:32;96891.34;;;27.61;36.54
30873;BME280;17579;42.690;2.586;2023-09-18T16:33:01;96885.81;;;27.40;36.80
30873;BME280;17579;42.690;2.586;2023-09-18T16:35:43;96905.75;;;27.19;37.07
30873;BME280;17579;42.690;2.586;2023-09-18T16:38:12;96902.44;;;27.11;37.94
30873;BME280;17579;42.690;2.586;2023-09-18T16:40:54;96902.34;;;27.01;37.94
30873;BME280;17579;42.690;2.586;2023-09-18T16:43:23;96909.31;;;26.92;38.22
30873;BME280;17579;42.690;2.586;2023-09-18T16:45:52;96917.94;;;26.84;38.54
30873;BME280;17579;42.690;2.586;2023-09-18T16:51:27;96927.06;;;26.72;38.29
30873;BME280;17579;42.690;2.586;2023-09-18T16:54:15;96944.03;;;26.62;38.67
30873;BME280;17579;42.690;2.586;2023-09-18T16:56:46;96937.78;;;26.62;39.20
30873;BME280;17579;42.690;2.586;2023-09-18T16:59:20;96942.91;;;26.58;39.72
30873;BME280;17579;42.690;2.586;2023-09-18T17:01:48;96943.94;;;26.52;39.49
30873;BME280;17579;42.690;2.586;2023-09-18T17:04:14;96950.63;;;26.44;39.31
30873;BME280;17579;42.690;2.586;2023-09-18T17:06:40;96948.69;;;26.40;39.06